sensor_id;sensor_type;location;lat;lon;timestamp;P1;durP1;ratioP1;P2;durP2;ratioP2
5553;SDS011;2800;49.528;8.666;2022-10-13T00:00:25;25.90;;;20.10;;
5553;SDS011;2800;49.528;8.666;2022-10-13T00:02:51;32.57;;;22.03;;
5553;SDS011;2800;49.528;8.666;2022-10-13T00:05:16;27.00;;;21.53;;
5553;SDS011;2800;49.528;8.666;2022-10-13T00:07:42;31.57;;;22.20;;
5553;SDS011;2800;49.528;8.666;2022-10-13T00:10:08;30.60;;;22.00;;
5553;SDS011;2800;49.528;8.666;2022-10-13T00:12:34;30.93;;;22.60;;
5553;SDS011;2800;49.528;8.666;2022-10-13T00:15:03;32.70;;;23.50;;
5553;SDS011;2800;49.528;8.666;2022-10-13T00:17:30;32.00;;;24.13;;
5553;SDS011;2800;49.528;8.666;2022-10-13T00:19:56;38.43;;;24.80;;
5553;SDS011;2800;49.528;8.666;2022-10-13T00:22:22;37.40;;;24.20;;
5553;SDS011;2800;49.528;8.666;2022-10-13T00:24:51;37.20;;;24.43;;
5553;SDS011;2800;49.528;8.666;2022-10-13T00:27:17;35.67;;;25.20;;
5553;SDS011;2800;49.528;8.666;2022-10-13T00:29:43;38.07;;;24.67;;
5553;SDS011;2800;49.528;8.666;2022-10-13T00:32:09;42.17;;;25.60;;
5553;SDS011;2800;49.528;8.666;2022-10-13T00:34:35;45.60;;;26.40;;
5553;SDS011;2800;49.528;8.666;2022-10-13T00:37:01;44.23;;;28.97;;
5553;SDS011;2800;49.528;8.666;2022-10-13T00:39:27;41.13;;;29.37;;
5553;SDS011;2800;49.528;8.666;2022-10-13T00:41:52;42.07;;;29.73;;
5553;SDS011;2800;49.528;8.666;2022-10-13T00:47:21;44.10;;;28.70;;
5553;SDS011;2800;49.528;8.666;2022-10-13T00:49:48;44.03;;;28.73;;
5553;SDS011;2800;49.528;8.666;2022-10-13T00:52:14;39.30;;;28.70;;
5553;SDS011;2800;49.528;8.666;2022-10-13T00:54:41;36.40;;;29.70;;
5553;SDS011;2800;49.528;8.666;2022-10-13T00:57:08;44.33;;;29.20;;
5553;SDS011;2800;49.528;8.666;2022-10-13T00:59:34;48.60;;;33.10;;
5553;SDS011;2800;49.528;8.666;2022-10-13T01:02:02;60.67;;;33.20;;
5553;SDS011;2800;49.528;8.666;2022-10-13T01:04:39;53.97;;;38.70;;
5553;SDS011;2800;49.528;8.666;2022-10-13T01:07:08;58.40;;;37.50;;
5553;SDS011;2800;49.528;8.666;2022-10-13T01:09:34;51.43;;;38.27;;
5553;SDS011;2800;49.528;8.666;2022-10-13T01:14:52;52.33;;;38.47;;
5553;SDS011;2800;49.528;8.666;2022-10-13T01:17:34;51.73;;;36.17;;
5553;SDS011;2800;49.528;8.666;2022-10-13T01:20:13;56.73;;;37.67;;
5553;SDS011;2800;49.528;8.666;2022-10-13T01:31:58;50.27;;;35.97;;
5553;SDS011;2800;49.528;8.666;2022-10-13T01:34:50;59.23;;;33.70;;
5553;SDS011;2800;49.528;8.666;2022-10-13T01:40:09;43.13;;;32.13;;
5553;SDS011;2800;49.528;8.666;2022-10-13T01:42:55;49.00;;;32.97;;
5553;SDS011;2800;49.528;8.666;2022-10-13T01:45:28;54.80;;;33.67;;
5553;SDS011;2800;49.528;8.666;2022-10-13T01:47:59;48.07;;;31.67;;
5553;SDS011;2800;49.528;8.666;2022-10-13T01:50:27;44.10;;;31.47;;
5553;SDS011;2800;49.528;8.666;2022-10-13T01:52:53;49.33;;;35.27;;
5553;SDS011;2800;49.528;8.666;2022-10-13T01:55:19;51.47;;;34.83;;
5553;SDS011;2800;49.528;8.666;2022-10-13T01:57:45;55.87;;;37.20;;
5553;SDS011;2800;49.528;8.666;2022-10-13T02:00:12;52.83;;;36.50;;
5553;SDS011;2800;49.528;8.666;2022-10-13T02:02:47;59.70;;;38.00;;
5553;SDS011;2800;49.528;8.666;2022-10-13T02:11:01;48.63;;;33.37;;
5553;SDS011;2800;49.528;8.666;2022-10-13T02:13:36;40.23;;;30.43;;
5553;SDS011;2800;49.528;8.666;2022-10-13T02:16:06;49.33;;;33.57;;
5553;SDS011;2800;49.528;8.666;2022-10-13T02:18:33;55.20;;;37.23;;
5553;SDS011;2800;49.528;8.666;2022-10-13T02:21:00;59.93;;;37.33;;
5553;SDS011;2800;49.528;8.666;2022-10-13T02:23:27;63.67;;;40.87;;
5553;SDS011;2800;49.528;8.666;2022-10-13T02:25:54;63.27;;;41.07;;
5553;SDS011;2800;49.528;8.666;2022-10-13T02:28:21;63.53;;;41.67;;
5553;SDS011;2800;49.528;8.666;2022-10-13T02:30:47;54.27;;;36.47;;
5553;SDS011;2800;49.528;8.666;2022-10-13T02:33:13;57.90;;;38.10;;
5553;SDS011;2800;49.528;8.666;2022-10-13T02:35:39;65.60;;;37.80;;
5553;SDS011;2800;49.528;8.666;2022-10-13T02:38:06;58.57;;;37.33;;
5553;SDS011;2800;49.528;8.666;2022-10-13T02:40:31;58.27;;;38.30;;
5553;SDS011;2800;49.528;8.666;2022-10-13T02:42:57;63.23;;;40.67;;
5553;SDS011;2800;49.528;8.666;2022-10-13T02:45:22;64.80;;;39.60;;
5553;SDS011;2800;49.528;8.666;2022-10-13T02:47:48;54.60;;;38.23;;
5553;SDS011;2800;49.528;8.666;2022-10-13T02:50:13;61.97;;;38.90;;
5553;SDS011;2800;49.528;8.666;2022-10-13T02:52:39;54.83;;;38.10;;
5553;SDS011;2800;49.528;8.666;2022-10-13T02:55:05;67.37;;;40.73;;
5553;SDS011;2800;49.528;8.666;2022-10-13T02:57:31;62.23;;;39.97;;
5553;SDS011;2800;49.528;8.666;2022-10-13T02:59:57;56.13;;;38.80;;
5553;SDS011;2800;49.528;8.666;2022-10-13T03:02:22;60.57;;;41.70;;
5553;SDS011;2800;49.528;8.666;2022-10-13T03:04:50;74.07;;;41.80;;
5553;SDS011;2800;49.528;8.666;2022-10-13T03:07:16;62.90;;;39.10;;
5553;SDS011;2800;49.528;8.666;2022-10-13T03:09:41;62.33;;;38.20;;
5553;SDS011;2800;49.528;8.666;2022-10-13T03:12:07;52.77;;;36.80;;
5553;SDS011;2800;49.528;8.666;2022-10-13T03:14:32;63.87;;;35.63;;
5553;SDS011;2800;49.528;8.666;2022-10-13T03:16:58;54.10;;;35.90;;
5553;SDS011;2800;49.528;8.666;2022-10-13T03:19:23;56.17;;;35.70;;
5553;SDS011;2800;49.528;8.666;2022-10-13T03:21:49;60.27;;;37.27;;
5553;SDS011;2800;49.528;8.666;2022-10-13T03:24:14;62.57;;;41.10;;
5553;SDS011;2800;49.528;8.666;2022-10-13T03:26:40;58.07;;;38.30;;
5553;SDS011;2800;49.528;8.666;2022-10-13T03:29:05;66.93;;;37.77;;
5553;SDS011;2800;49.528;8.666;2022-10-13T03:31:31;52.13;;;38.63;;
5553;SDS011;2800;49.528;8.666;2022-10-13T03:33:57;63.50;;;44.50;;
5553;SDS011;2800;49.528;8.666;2022-10-13T03:36:22;64.30;;;41.37;;
5553;SDS011;2800;49.528;8.666;2022-10-13T03:38:48;59.57;;;40.40;;
5553;SDS011;2800;49.528;8.666;2022-10-13T03:41:14;63.13;;;37.40;;
5553;SDS011;2800;49.528;8.666;2022-10-13T03:43:41;75.63;;;52.93;;
5553;SDS011;2800;49.528;8.666;2022-10-13T03:46:09;70.30;;;46.00;;
5553;SDS011;2800;49.528;8.666;2022-10-13T03:48:36;68.57;;;41.67;;
5553;SDS011;2800;49.528;8.666;2022-10-13T03:51:09;60.97;;;39.30;;
5553;SDS011;2800;49.528;8.666;2022-10-13T03:53:37;59.80;;;38.33;;
5553;SDS011;2800;49.528;8.666;2022-10-13T03:56:03;53.63;;;36.87;;
5553;SDS011;2800;49.528;8.666;2022-10-13T03:58:29;53.10;;;32.87;;
5553;SDS011;2800;49.528;8.666;2022-10-13T04:00:56;57.30;;;34.00;;
5553;SDS011;2800;49.528;8.666;2022-10-13T04:03:25;52.77;;;32.30;;
5553;SDS011;2800;49.528;8.666;2022-10-13T04:05:51;44.23;;;31.00;;
5553;SDS011;2800;49.528;8.666;2022-10-13T04:08:16;46.17;;;30.20;;
5553;SDS011;2800;49.528;8.666;2022-10-13T04:10:42;41.07;;;29.33;;
5553;SDS011;2800;49.528;8.666;2022-10-13T04:13:07;40.33;;;27.40;;
5553;SDS011;2800;49.528;8.666;2022-10-13T04:15:39;41.67;;;27.67;;
5553;SDS011;2800;49.528;8.666;2022-10-13T04:18:05;41.00;;;28.30;;
5553;SDS011;2800;49.528;8.666;2022-10-13T04:20:38;43.30;;;28.40;;
5553;SDS011;2800;49.528;8.666;2022-10-13T04:23:04;37.23;;;27.47;;
5553;SDS011;2800;49.528;8.666;2022-10-13T04:25:33;38.97;;;27.70;;
5553;SDS011;2800;49.528;8.666;2022-10-13T04:28:00;44.53;;;29.23;;
5553;SDS011;2800;49.528;8.666;2022-10-13T04:30:26;51.93;;;33.17;;
5553;SDS011;2800;49.528;8.666;2022-10-13T04:32:51;52.53;;;35.70;;
5553;SDS011;2800;49.528;8.666;2022-10-13T04:35:17;49.53;;;33.17;;
5553;SDS011;2800;49.528;8.666;2022-10-13T04:37:42;48.40;;;34.30;;
5553;SDS011;2800;49.528;8.666;2022-10-13T04:40:08;45.03;;;32.23;;
5553;SDS011;2800;49.528;8.666;2022-10-13T04:42:33;47.00;;;32.77;;
5553;SDS011;2800;49.528;8.666;2022-10-13T04:44:59;38.50;;;28.93;;
5553;SDS011;2800;49.528;8.666;2022-10-13T04:47:25;42.70;;;29.47;;
5553;SDS011;2800;49.528;8.666;2022-10-13T04:49:50;39.30;;;29.03;;
5553;SDS011;2800;49.528;8.666;2022-10-13T04:52:15;38.30;;;27.80;;
5553;SDS011;2800;49.528;8.666;2022-10-13T04:54:41;41.60;;;30.00;;
5553;SDS011;2800;49.528;8.666;2022-10-13T04:57:07;45.03;;;30.30;;
5553;SDS011;2800;49.528;8.666;2022-10-13T04:59:32;41.47;;;28.10;;
5553;SDS011;2800;49.528;8.666;2022-10-13T05:01:58;39.10;;;27.03;;
5553;SDS011;2800;49.528;8.666;2022-10-13T05:04:23;45.70;;;28.33;;
5553;SDS011;2800;49.528;8.666;2022-10-13T05:06:49;61.70;;;38.33;;
5553;SDS011;2800;49.528;8.666;2022-10-13T05:09:14;56.03;;;36.80;;
5553;SDS011;2800;49.528;8.666;2022-10-13T05:11:40;61.93;;;37.77;;
5553;SDS011;2800;49.528;8.666;2022-10-13T05:14:06;58.17;;;39.53;;
5553;SDS011;2800;49.528;8.666;2022-10-13T05:16:31;63.77;;;41.50;;
5553;SDS011;2800;49.528;8.666;2022-10-13T05:18:57;70.03;;;43.80;;
5553;SDS011;2800;49.528;8.666;2022-10-13T05:21:23;76.53;;;47.90;;
5553;SDS011;2800;49.528;8.666;2022-10-13T05:23:51;72.90;;;46.17;;
5553;SDS011;2800;49.528;8.666;2022-10-13T05:26:21;80.33;;;45.70;;
5553;SDS011;2800;49.528;8.666;2022-10-13T05:28:48;77.23;;;46.10;;
5553;SDS011;2800;49.528;8.666;2022-10-13T05:31:18;83.30;;;49.83;;
5553;SDS011;2800;49.528;8.666;2022-10-13T05:33:46;85.53;;;48.33;;
5553;SDS011;2800;49.528;8.666;2022-10-13T05:36:13;82.70;;;49.30;;
5553;SDS011;2800;49.528;8.666;2022-10-13T05:38:40;91.53;;;51.57;;
5553;SDS011;2800;49.528;8.666;2022-10-13T05:41:13;87.67;;;52.00;;
5553;SDS011;2800;49.528;8.666;2022-10-13T05:43:39;86.47;;;49.07;;
5553;SDS011;2800;49.528;8.666;2022-10-13T05:46:06;87.57;;;50.17;;
5553;SDS011;2800;49.528;8.666;2022-10-13T05:48:32;79.83;;;47.03;;
5553;SDS011;2800;49.528;8.666;2022-10-13T05:50:58;65.87;;;43.07;;
5553;SDS011;2800;49.528;8.666;2022-10-13T05:53:25;56.43;;;36.30;;
5553;SDS011;2800;49.528;8.666;2022-10-13T05:55:52;55.63;;;37.93;;
5553;SDS011;2800;49.528;8.666;2022-10-13T05:58:20;55.70;;;37.17;;
5553;SDS011;2800;49.528;8.666;2022-10-13T06:00:46;56.17;;;36.93;;
5553;SDS011;2800;49.528;8.666;2022-10-13T06:03:13;51.10;;;35.70;;
5553;SDS011;2800;49.528;8.666;2022-10-13T06:05:41;63.40;;;40.80;;
5553;SDS011;2800;49.528;8.666;2022-10-13T06:08:09;63.10;;;38.53;;
5553;SDS011;2800;49.528;8.666;2022-10-13T06:10:38;56.37;;;39.40;;
5553;SDS011;2800;49.528;8.666;2022-10-13T06:13:04;51.50;;;35.93;;
5553;SDS011;2800;49.528;8.666;2022-10-13T06:15:30;65.10;;;41.90;;
5553;SDS011;2800;49.528;8.666;2022-10-13T06:17:55;63.57;;;38.63;;
5553;SDS011;2800;49.528;8.666;2022-10-13T06:20:21;64.63;;;41.00;;
5553;SDS011;2800;49.528;8.666;2022-10-13T06:22:46;61.13;;;38.57;;
5553;SDS011;2800;49.528;8.666;2022-10-13T06:25:14;61.60;;;37.47;;
5553;SDS011;2800;49.528;8.666;2022-10-13T06:27:39;63.10;;;37.87;;
5553;SDS011;2800;49.528;8.666;2022-10-13T06:30:05;66.80;;;37.40;;
5553;SDS011;2800;49.528;8.666;2022-10-13T06:32:31;68.77;;;41.63;;
5553;SDS011;2800;49.528;8.666;2022-10-13T06:34:57;100.20;;;39.90;;
5553;SDS011;2800;49.528;8.666;2022-10-13T06:37:22;78.77;;;41.53;;
5553;SDS011;2800;49.528;8.666;2022-10-13T06:39:48;71.37;;;40.60;;
5553;SDS011;2800;49.528;8.666;2022-10-13T06:42:13;79.77;;;40.80;;
5553;SDS011;2800;49.528;8.666;2022-10-13T06:44:39;566.27;;;48.03;;
5553;SDS011;2800;49.528;8.666;2022-10-13T06:47:04;517.70;;;45.50;;
5553;SDS011;2800;49.528;8.666;2022-10-13T06:49:30;356.40;;;42.63;;
5553;SDS011;2800;49.528;8.666;2022-10-13T06:51:56;504.97;;;46.23;;
5553;SDS011;2800;49.528;8.666;2022-10-13T06:54:21;139.60;;;37.03;;
5553;SDS011;2800;49.528;8.666;2022-10-13T06:56:47;424.53;;;43.27;;
5553;SDS011;2800;49.528;8.666;2022-10-13T06:59:12;186.30;;;41.17;;
5553;SDS011;2800;49.528;8.666;2022-10-13T07:01:38;205.00;;;42.83;;
5553;SDS011;2800;49.528;8.666;2022-10-13T07:04:03;87.03;;;44.90;;
5553;SDS011;2800;49.528;8.666;2022-10-13T07:06:29;156.87;;;37.23;;
5553;SDS011;2800;49.528;8.666;2022-10-13T07:08:55;276.07;;;35.30;;
5553;SDS011;2800;49.528;8.666;2022-10-13T07:11:21;172.97;;;33.57;;
5553;SDS011;2800;49.528;8.666;2022-10-13T07:13:47;131.87;;;39.50;;
5553;SDS011;2800;49.528;8.666;2022-10-13T07:16:12;104.03;;;43.23;;
5553;SDS011;2800;49.528;8.666;2022-10-13T07:18:39;76.63;;;38.40;;
5553;SDS011;2800;49.528;8.666;2022-10-13T07:21:04;70.77;;;40.50;;
5553;SDS011;2800;49.528;8.666;2022-10-13T07:23:30;72.60;;;42.53;;
5553;SDS011;2800;49.528;8.666;2022-10-13T07:25:56;74.93;;;43.27;;
5553;SDS011;2800;49.528;8.666;2022-10-13T07:28:23;65.77;;;41.83;;
5553;SDS011;2800;49.528;8.666;2022-10-13T07:30:49;61.97;;;37.93;;
5553;SDS011;2800;49.528;8.666;2022-10-13T07:33:14;55.93;;;37.67;;
5553;SDS011;2800;49.528;8.666;2022-10-13T07:35:40;50.13;;;34.90;;
5553;SDS011;2800;49.528;8.666;2022-10-13T07:38:06;49.43;;;32.77;;
5553;SDS011;2800;49.528;8.666;2022-10-13T07:40:32;52.83;;;33.63;;
5553;SDS011;2800;49.528;8.666;2022-10-13T07:42:58;48.70;;;32.83;;
5553;SDS011;2800;49.528;8.666;2022-10-13T07:45:24;49.00;;;32.57;;
5553;SDS011;2800;49.528;8.666;2022-10-13T07:47:49;41.23;;;30.20;;
5553;SDS011;2800;49.528;8.666;2022-10-13T07:50:15;46.50;;;30.80;;
5553;SDS011;2800;49.528;8.666;2022-10-13T07:52:40;40.30;;;29.47;;
5553;SDS011;2800;49.528;8.666;2022-10-13T07:55:06;40.90;;;28.43;;
5553;SDS011;2800;49.528;8.666;2022-10-13T07:57:32;45.27;;;29.43;;
5553;SDS011;2800;49.528;8.666;2022-10-13T07:59:58;41.70;;;29.83;;
5553;SDS011;2800;49.528;8.666;2022-10-13T08:02:24;40.50;;;27.77;;
5553;SDS011;2800;49.528;8.666;2022-10-13T08:04:50;40.70;;;29.70;;
5553;SDS011;2800;49.528;8.666;2022-10-13T08:07:15;39.43;;;27.87;;
5553;SDS011;2800;49.528;8.666;2022-10-13T08:09:42;52.53;;;40.13;;
5553;SDS011;2800;49.528;8.666;2022-10-13T08:12:07;42.83;;;28.10;;
5553;SDS011;2800;49.528;8.666;2022-10-13T08:14:33;41.20;;;26.30;;
5553;SDS011;2800;49.528;8.666;2022-10-13T08:16:59;37.40;;;24.80;;
5553;SDS011;2800;49.528;8.666;2022-10-13T08:19:25;32.13;;;23.00;;
5553;SDS011;2800;49.528;8.666;2022-10-13T08:21:52;29.73;;;20.80;;
5553;SDS011;2800;49.528;8.666;2022-10-13T08:24:18;29.30;;;22.07;;
5553;SDS011;2800;49.528;8.666;2022-10-13T08:26:46;27.10;;;20.03;;
5553;SDS011;2800;49.528;8.666;2022-10-13T08:29:12;29.07;;;19.60;;
5553;SDS011;2800;49.528;8.666;2022-10-13T08:31:38;31.27;;;21.67;;
5553;SDS011;2800;49.528;8.666;2022-10-13T08:34:03;41.50;;;21.20;;
5553;SDS011;2800;49.528;8.666;2022-10-13T08:36:29;30.53;;;20.67;;
5553;SDS011;2800;49.528;8.666;2022-10-13T08:38:55;33.83;;;21.53;;
5553;SDS011;2800;49.528;8.666;2022-10-13T08:41:24;32.03;;;21.97;;
5553;SDS011;2800;49.528;8.666;2022-10-13T08:43:56;35.60;;;22.50;;
5553;SDS011;2800;49.528;8.666;2022-10-13T08:46:31;33.97;;;22.53;;
5553;SDS011;2800;49.528;8.666;2022-10-13T08:49:18;29.13;;;20.43;;
5553;SDS011;2800;49.528;8.666;2022-10-13T08:51:43;31.17;;;21.30;;
5553;SDS011;2800;49.528;8.666;2022-10-13T08:54:13;40.37;;;29.97;;
5553;SDS011;2800;49.528;8.666;2022-10-13T08:56:41;37.33;;;24.77;;
5553;SDS011;2800;49.528;8.666;2022-10-13T08:59:09;34.83;;;24.93;;
5553;SDS011;2800;49.528;8.666;2022-10-13T09:01:38;38.10;;;25.13;;
5553;SDS011;2800;49.528;8.666;2022-10-13T09:06:53;35.80;;;24.30;;
5553;SDS011;2800;49.528;8.666;2022-10-13T09:09:25;38.50;;;25.90;;
5553;SDS011;2800;49.528;8.666;2022-10-13T09:11:51;37.50;;;25.07;;
5553;SDS011;2800;49.528;8.666;2022-10-13T09:16:55;44.53;;;25.67;;
5553;SDS011;2800;49.528;8.666;2022-10-13T09:19:35;35.33;;;24.83;;
5553;SDS011;2800;49.528;8.666;2022-10-13T09:27:49;31.40;;;23.37;;
5553;SDS011;2800;49.528;8.666;2022-10-13T09:30:28;35.97;;;25.47;;
5553;SDS011;2800;49.528;8.666;2022-10-13T09:35:38;35.80;;;25.20;;
5553;SDS011;2800;49.528;8.666;2022-10-13T09:38:18;37.20;;;26.40;;
5553;SDS011;2800;49.528;8.666;2022-10-13T09:40:59;41.40;;;26.20;;
5553;SDS011;2800;49.528;8.666;2022-10-13T09:43:35;36.50;;;26.13;;
5553;SDS011;2800;49.528;8.666;2022-10-13T09:46:18;37.90;;;26.47;;
5553;SDS011;2800;49.528;8.666;2022-10-13T09:48:48;38.73;;;27.17;;
5553;SDS011;2800;49.528;8.666;2022-10-13T09:51:49;44.73;;;27.50;;
5553;SDS011;2800;49.528;8.666;2022-10-13T09:54:24;35.37;;;25.80;;
5553;SDS011;2800;49.528;8.666;2022-10-13T10:02:35;37.00;;;25.97;;
5553;SDS011;2800;49.528;8.666;2022-10-13T10:05:06;45.30;;;31.47;;
5553;SDS011;2800;49.528;8.666;2022-10-13T10:07:42;38.50;;;25.83;;
5553;SDS011;2800;49.528;8.666;2022-10-13T10:10:12;35.90;;;23.80;;
5553;SDS011;2800;49.528;8.666;2022-10-13T10:12:49;40.43;;;24.17;;
5553;SDS011;2800;49.528;8.666;2022-10-13T10:15:17;38.10;;;23.43;;
5553;SDS011;2800;49.528;8.666;2022-10-13T10:17:51;34.20;;;23.63;;
5553;SDS011;2800;49.528;8.666;2022-10-13T10:20:39;40.27;;;24.80;;
5553;SDS011;2800;49.528;8.666;2022-10-13T10:40:31;34.63;;;23.70;;
5553;SDS011;2800;49.528;8.666;2022-10-13T10:43:12;33.10;;;21.87;;
5553;SDS011;2800;49.528;8.666;2022-10-13T10:45:54;33.33;;;20.80;;
5553;SDS011;2800;49.528;8.666;2022-10-13T10:48:24;29.80;;;21.70;;
5553;SDS011;2800;49.528;8.666;2022-10-13T10:50:54;29.23;;;20.33;;
5553;SDS011;2800;49.528;8.666;2022-10-13T10:53:38;32.90;;;20.17;;
5553;SDS011;2800;49.528;8.666;2022-10-13T11:07:04;29.67;;;20.90;;
5553;SDS011;2800;49.528;8.666;2022-10-13T11:12:21;32.90;;;21.00;;
5553;SDS011;2800;49.528;8.666;2022-10-13T11:14:55;30.30;;;19.97;;
5553;SDS011;2800;49.528;8.666;2022-10-13T11:17:34;29.30;;;20.43;;
5553;SDS011;2800;49.528;8.666;2022-10-13T11:22:43;27.80;;;20.23;;
5553;SDS011;2800;49.528;8.666;2022-10-13T11:30:53;28.67;;;19.67;;
5553;SDS011;2800;49.528;8.666;2022-10-13T11:42:08;23.50;;;16.10;;
5553;SDS011;2800;49.528;8.666;2022-10-13T11:50:24;21.07;;;14.60;;
5553;SDS011;2800;49.528;8.666;2022-10-13T11:53:22;23.57;;;13.90;;
5553;SDS011;2800;49.528;8.666;2022-10-13T11:55:55;25.03;;;14.10;;
5553;SDS011;2800;49.528;8.666;2022-10-13T11:58:23;23.30;;;14.80;;
5553;SDS011;2800;49.528;8.666;2022-10-13T12:01:01;25.63;;;16.20;;
5553;SDS011;2800;49.528;8.666;2022-10-13T12:06:01;31.07;;;19.00;;
5553;SDS011;2800;49.528;8.666;2022-10-13T12:08:29;31.37;;;18.80;;
5553;SDS011;2800;49.528;8.666;2022-10-13T12:10:57;33.50;;;18.47;;
5553;SDS011;2800;49.528;8.666;2022-10-13T12:13:28;30.50;;;18.70;;
5553;SDS011;2800;49.528;8.666;2022-10-13T12:15:56;29.87;;;17.80;;
5553;SDS011;2800;49.528;8.666;2022-10-13T12:18:26;30.20;;;18.80;;
5553;SDS011;2800;49.528;8.666;2022-10-13T12:20:55;27.73;;;18.23;;
5553;SDS011;2800;49.528;8.666;2022-10-13T12:23:22;29.13;;;18.10;;
5553;SDS011;2800;49.528;8.666;2022-10-13T12:25:50;46.07;;;19.83;;
5553;SDS011;2800;49.528;8.666;2022-10-13T12:28:21;27.80;;;18.93;;
5553;SDS011;2800;49.528;8.666;2022-10-13T12:30:50;31.50;;;19.63;;
5553;SDS011;2800;49.528;8.666;2022-10-13T12:33:29;34.23;;;19.57;;
5553;SDS011;2800;49.528;8.666;2022-10-13T12:36:09;32.00;;;19.33;;
5553;SDS011;2800;49.528;8.666;2022-10-13T12:38:37;27.07;;;18.43;;
5553;SDS011;2800;49.528;8.666;2022-10-13T12:41:08;29.60;;;18.10;;
5553;SDS011;2800;49.528;8.666;2022-10-13T12:43:34;30.60;;;17.70;;
5553;SDS011;2800;49.528;8.666;2022-10-13T12:46:00;27.20;;;16.90;;
5553;SDS011;2800;49.528;8.666;2022-10-13T12:48:32;25.63;;;17.10;;
5553;SDS011;2800;49.528;8.666;2022-10-13T12:53:44;25.07;;;17.47;;
5553;SDS011;2800;49.528;8.666;2022-10-13T12:56:24;33.10;;;17.20;;
5553;SDS011;2800;49.528;8.666;2022-10-13T12:58:54;25.17;;;16.90;;
5553;SDS011;2800;49.528;8.666;2022-10-13T13:01:28;34.17;;;19.60;;
5553;SDS011;2800;49.528;8.666;2022-10-13T13:04:00;33.07;;;20.40;;
5553;SDS011;2800;49.528;8.666;2022-10-13T13:06:38;30.27;;;18.20;;
5553;SDS011;2800;49.528;8.666;2022-10-13T13:09:22;27.87;;;17.90;;
5553;SDS011;2800;49.528;8.666;2022-10-13T13:14:51;26.67;;;16.80;;
5553;SDS011;2800;49.528;8.666;2022-10-13T13:19:51;28.87;;;17.37;;
5553;SDS011;2800;49.528;8.666;2022-10-13T13:22:17;29.63;;;18.97;;
5553;SDS011;2800;49.528;8.666;2022-10-13T13:24:43;32.03;;;17.17;;
5553;SDS011;2800;49.528;8.666;2022-10-13T13:27:17;26.43;;;16.90;;
5553;SDS011;2800;49.528;8.666;2022-10-13T13:29:43;24.93;;;17.33;;
5553;SDS011;2800;49.528;8.666;2022-10-13T13:32:10;28.33;;;18.33;;
5553;SDS011;2800;49.528;8.666;2022-10-13T13:34:37;29.63;;;17.60;;
5553;SDS011;2800;49.528;8.666;2022-10-13T13:37:02;24.00;;;17.07;;
5553;SDS011;2800;49.528;8.666;2022-10-13T13:39:28;32.40;;;17.80;;
5553;SDS011;2800;49.528;8.666;2022-10-13T13:41:53;32.00;;;17.33;;
5553;SDS011;2800;49.528;8.666;2022-10-13T13:44:19;26.73;;;18.10;;
5553;SDS011;2800;49.528;8.666;2022-10-13T13:46:44;35.30;;;18.30;;
5553;SDS011;2800;49.528;8.666;2022-10-13T13:49:10;32.17;;;18.70;;
5553;SDS011;2800;49.528;8.666;2022-10-13T13:51:36;29.23;;;17.20;;
5553;SDS011;2800;49.528;8.666;2022-10-13T13:54:01;31.80;;;18.10;;
5553;SDS011;2800;49.528;8.666;2022-10-13T13:56:27;32.60;;;17.33;;
5553;SDS011;2800;49.528;8.666;2022-10-13T13:58:53;33.10;;;17.03;;
5553;SDS011;2800;49.528;8.666;2022-10-13T14:01:18;25.73;;;17.20;;
5553;SDS011;2800;49.528;8.666;2022-10-13T14:03:44;30.50;;;18.50;;
5553;SDS011;2800;49.528;8.666;2022-10-13T14:06:15;26.20;;;18.43;;
5553;SDS011;2800;49.528;8.666;2022-10-13T14:08:42;27.73;;;17.23;;
5553;SDS011;2800;49.528;8.666;2022-10-13T14:11:08;33.77;;;19.20;;
5553;SDS011;2800;49.528;8.666;2022-10-13T14:13:34;26.83;;;17.33;;
5553;SDS011;2800;49.528;8.666;2022-10-13T14:16:00;29.27;;;16.37;;
5553;SDS011;2800;49.528;8.666;2022-10-13T14:18:26;27.83;;;17.40;;
5553;SDS011;2800;49.528;8.666;2022-10-13T14:20:52;26.40;;;16.60;;
5553;SDS011;2800;49.528;8.666;2022-10-13T14:23:17;36.30;;;16.80;;
5553;SDS011;2800;49.528;8.666;2022-10-13T14:25:43;27.70;;;17.73;;
5553;SDS011;2800;49.528;8.666;2022-10-13T14:28:09;25.80;;;16.47;;
5553;SDS011;2800;49.528;8.666;2022-10-13T14:30:37;29.83;;;18.00;;
5553;SDS011;2800;49.528;8.666;2022-10-13T14:33:03;36.97;;;18.73;;
5553;SDS011;2800;49.528;8.666;2022-10-13T14:35:29;25.53;;;17.50;;
5553;SDS011;2800;49.528;8.666;2022-10-13T14:37:55;27.27;;;17.50;;
5553;SDS011;2800;49.528;8.666;2022-10-13T14:40:20;25.60;;;17.43;;
5553;SDS011;2800;49.528;8.666;2022-10-13T14:42:46;25.33;;;16.50;;
5553;SDS011;2800;49.528;8.666;2022-10-13T14:45:11;26.20;;;16.70;;
5553;SDS011;2800;49.528;8.666;2022-10-13T14:47:37;27.07;;;16.90;;
5553;SDS011;2800;49.528;8.666;2022-10-13T14:50:03;28.27;;;16.73;;
5553;SDS011;2800;49.528;8.666;2022-10-13T14:52:29;23.60;;;16.50;;
5553;SDS011;2800;49.528;8.666;2022-10-13T14:54:55;26.33;;;15.90;;
5553;SDS011;2800;49.528;8.666;2022-10-13T14:57:21;25.03;;;16.03;;
5553;SDS011;2800;49.528;8.666;2022-10-13T14:59:47;24.83;;;16.33;;
5553;SDS011;2800;49.528;8.666;2022-10-13T15:02:13;25.80;;;15.90;;
5553;SDS011;2800;49.528;8.666;2022-10-13T15:04:39;22.77;;;15.80;;
5553;SDS011;2800;49.528;8.666;2022-10-13T15:07:05;22.50;;;16.10;;
5553;SDS011;2800;49.528;8.666;2022-10-13T15:09:31;23.90;;;15.30;;
5553;SDS011;2800;49.528;8.666;2022-10-13T15:11:57;43.80;;;16.30;;
5553;SDS011;2800;49.528;8.666;2022-10-13T15:14:23;50.17;;;16.00;;
5553;SDS011;2800;49.528;8.666;2022-10-13T15:16:49;24.63;;;15.03;;
5553;SDS011;2800;49.528;8.666;2022-10-13T15:19:15;35.60;;;16.70;;
5553;SDS011;2800;49.528;8.666;2022-10-13T15:21:40;24.90;;;16.57;;
5553;SDS011;2800;49.528;8.666;2022-10-13T15:24:06;32.13;;;16.93;;
5553;SDS011;2800;49.528;8.666;2022-10-13T15:26:33;30.20;;;16.83;;
5553;SDS011;2800;49.528;8.666;2022-10-13T15:29:00;29.07;;;16.40;;
5553;SDS011;2800;49.528;8.666;2022-10-13T15:31:27;28.23;;;17.67;;
5553;SDS011;2800;49.528;8.666;2022-10-13T15:33:55;26.73;;;16.50;;
5553;SDS011;2800;49.528;8.666;2022-10-13T15:36:22;24.00;;;17.37;;
5553;SDS011;2800;49.528;8.666;2022-10-13T15:38:49;23.73;;;17.73;;
5553;SDS011;2800;49.528;8.666;2022-10-13T15:41:15;35.50;;;17.90;;
5553;SDS011;2800;49.528;8.666;2022-10-13T15:43:42;29.57;;;21.30;;
5553;SDS011;2800;49.528;8.666;2022-10-13T15:46:11;36.97;;;20.17;;
5553;SDS011;2800;49.528;8.666;2022-10-13T15:48:45;41.33;;;25.50;;
5553;SDS011;2800;49.528;8.666;2022-10-13T15:51:16;42.20;;;27.17;;
5553;SDS011;2800;49.528;8.666;2022-10-13T15:53:43;49.33;;;24.87;;
5553;SDS011;2800;49.528;8.666;2022-10-13T15:56:09;33.27;;;20.93;;
5553;SDS011;2800;49.528;8.666;2022-10-13T15:58:35;35.87;;;20.40;;
5553;SDS011;2800;49.528;8.666;2022-10-13T16:01:05;33.97;;;19.80;;
5553;SDS011;2800;49.528;8.666;2022-10-13T16:03:32;42.13;;;19.20;;
5553;SDS011;2800;49.528;8.666;2022-10-13T16:05:58;30.57;;;17.57;;
5553;SDS011;2800;49.528;8.666;2022-10-13T16:08:28;30.30;;;18.20;;
5553;SDS011;2800;49.528;8.666;2022-10-13T16:10:53;32.80;;;19.00;;
5553;SDS011;2800;49.528;8.666;2022-10-13T16:13:19;33.80;;;18.90;;
5553;SDS011;2800;49.528;8.666;2022-10-13T16:15:48;32.63;;;19.10;;
5553;SDS011;2800;49.528;8.666;2022-10-13T16:18:20;40.00;;;21.03;;
5553;SDS011;2800;49.528;8.666;2022-10-13T16:20:46;37.13;;;20.90;;
5553;SDS011;2800;49.528;8.666;2022-10-13T16:23:12;35.47;;;20.83;;
5553;SDS011;2800;49.528;8.666;2022-10-13T16:25:38;31.60;;;21.00;;
5553;SDS011;2800;49.528;8.666;2022-10-13T16:28:03;34.63;;;21.73;;
5553;SDS011;2800;49.528;8.666;2022-10-13T16:30:29;37.37;;;23.90;;
5553;SDS011;2800;49.528;8.666;2022-10-13T16:32:55;35.33;;;21.13;;
5553;SDS011;2800;49.528;8.666;2022-10-13T16:35:21;28.60;;;20.30;;
5553;SDS011;2800;49.528;8.666;2022-10-13T16:37:47;40.63;;;22.10;;
5553;SDS011;2800;49.528;8.666;2022-10-13T16:40:12;34.00;;;22.50;;